createdAt,value
2023-08-30T00:00:02.683Z,3.58
2023-08-30T00:02:52.353Z,6.07
2023-08-30T00:05:40.733Z,4.13
2023-08-30T00:08:25.979Z,3.80
2023-08-30T00:11:11.538Z,4.15
2023-08-30T00:14:06.690Z,3.90
2023-08-30T00:16:52.199Z,4.15
2023-08-30T00:19:37.651Z,5.78
2023-08-30T00:22:23.511Z,3.90
2023-08-30T00:25:09.094Z,4.32
2023-08-30T00:27:54.690Z,3.85
2023-08-30T00:30:40.293Z,3.80
2023-08-30T00:33:26.252Z,4.22
2023-08-30T00:36:11.806Z,3.80
2023-08-30T00:38:57.458Z,4.22
2023-08-30T00:41:42.893Z,5.35
2023-08-30T00:44:28.280Z,3.90
2023-08-30T00:47:14.085Z,4.22
2023-08-30T00:49:59.479Z,4.10
2023-08-30T00:52:45.679Z,4.25
2023-08-30T00:55:31.061Z,5.60
2023-08-30T00:58:16.832Z,4.10
2023-08-30T01:01:03.099Z,3.83
2023-08-30T01:03:48.436Z,4.07
2023-08-30T01:06:36.356Z,3.95
2023-08-30T01:09:22.552Z,4.60
2023-08-30T01:12:13.928Z,4.20
2023-08-30T01:15:07.238Z,3.88
2023-08-30T01:17:54.264Z,4.65
2023-08-30T01:20:42.876Z,4.15
2023-08-30T01:23:43.876Z,4.97
2023-08-30T01:27:04.682Z,4.68
2023-08-30T01:29:51.328Z,4.50
2023-08-30T01:32:37.377Z,6.10
2023-08-30T01:35:24.457Z,4.38
2023-08-30T01:38:11.087Z,5.20
2023-08-30T01:41:00.780Z,4.55
2023-08-30T01:43:48.146Z,4.38
2023-08-30T01:46:34.806Z,5.00
2023-08-30T01:49:21.207Z,5.57
2023-08-30T01:52:08.245Z,5.35
2023-08-30T01:54:56.870Z,5.05
2023-08-30T01:57:42.232Z,5.68
2023-08-30T02:00:27.843Z,4.90
2023-08-30T02:03:14.736Z,4.63
2023-08-30T02:06:09.934Z,5.10
2023-08-30T02:09:02.745Z,5.47
2023-08-30T02:11:51.870Z,5.60
2023-08-30T02:14:39.580Z,5.60
2023-08-30T02:17:25.407Z,5.40
2023-08-30T02:20:11.911Z,5.32
2023-08-30T02:23:04.341Z,5.32
2023-08-30T02:25:57.057Z,5.60
2023-08-30T02:28:42.976Z,5.35
2023-08-30T02:31:29.987Z,5.53
2023-08-30T02:34:15.642Z,5.45
2023-08-30T02:37:01.252Z,6.53
2023-08-30T02:39:46.991Z,6.15
2023-08-30T02:42:32.598Z,5.75
2023-08-30T02:45:18.194Z,6.65
2023-08-30T02:48:04.543Z,5.60
2023-08-30T02:50:49.849Z,7.10
2023-08-30T02:53:35.528Z,6.38
2023-08-30T02:56:21.101Z,6.13
2023-08-30T02:59:06.536Z,6.47
2023-08-30T03:01:51.922Z,5.78
2023-08-30T03:04:39.771Z,6.43
2023-08-30T03:07:25.183Z,6.50
2023-08-30T03:10:13.294Z,6.20
2023-08-30T03:12:58.784Z,6.18
2023-08-30T03:15:44.831Z,5.82
2023-08-30T03:18:30.406Z,6.68
2023-08-30T03:21:15.992Z,6.82
2023-08-30T03:24:01.454Z,6.90
2023-08-30T03:26:46.901Z,6.97
2023-08-30T03:29:32.524Z,6.55
2023-08-30T03:32:19.444Z,6.30
2023-08-30T03:35:07.905Z,7.03
2023-08-30T03:37:53.421Z,6.70
2023-08-30T03:40:40.525Z,7.00
2023-08-30T03:43:26.305Z,6.88
2023-08-30T03:46:13.290Z,6.50
2023-08-30T03:48:58.956Z,7.43
2023-08-30T03:51:44.591Z,6.68
2023-08-30T03:54:30.211Z,6.82
2023-08-30T03:57:15.478Z,8.25
2023-08-30T04:00:01.069Z,6.85
2023-08-30T04:02:48.345Z,6.88
2023-08-30T04:05:35.138Z,7.15
2023-08-30T04:08:20.817Z,7.13
2023-08-30T04:11:06.392Z,7.30
2023-08-30T04:13:53.443Z,7.05
2023-08-30T04:16:39.264Z,7.05
2023-08-30T04:19:26.543Z,9.20
2023-08-30T04:22:12.212Z,7.68
2023-08-30T04:24:57.863Z,7.38
2023-08-30T04:27:43.889Z,8.00
2023-08-30T04:30:29.320Z,8.00
2023-08-30T04:33:15.426Z,8.32
2023-08-30T04:36:01.923Z,8.63
2023-08-30T04:39:00.475Z,8.50
2023-08-30T04:41:48.580Z,9.23
2023-08-30T04:44:34.047Z,9.40
2023-08-30T04:47:19.458Z,9.35
2023-08-30T04:50:05.487Z,9.57
2023-08-30T04:52:52.302Z,10.57
2023-08-30T04:55:37.767Z,9.38
2023-08-30T04:58:23.511Z,11.07
2023-08-30T05:01:09.765Z,10.38
2023-08-30T05:03:57.082Z,10.20
2023-08-30T05:06:42.986Z,10.60
2023-08-30T05:09:29.142Z,9.30
2023-08-30T05:12:14.505Z,9.95
2023-08-30T05:15:00.614Z,10.02
2023-08-30T05:17:47.233Z,10.13
2023-08-30T05:20:32.498Z,9.80
2023-08-30T05:23:18.115Z,10.48
2023-08-30T05:26:03.609Z,11.05
2023-08-30T05:28:49.394Z,9.07
2023-08-30T05:31:35.140Z,10.93
2023-08-30T05:34:40.797Z,9.43
2023-08-30T05:37:38.789Z,10.10
2023-08-30T05:40:45.788Z,11.15
2023-08-30T05:43:31.311Z,9.75
2023-08-30T05:46:17.957Z,9.73
2023-08-30T05:49:04.212Z,11.07
2023-08-30T05:51:50.015Z,12.95
2023-08-30T05:54:37.121Z,11.57
2023-08-30T05:57:23.373Z,11.07
2023-08-30T06:00:09.946Z,10.50
2023-08-30T06:03:01.320Z,12.98
2023-08-30T06:05:46.948Z,12.27
2023-08-30T06:08:32.224Z,11.35
2023-08-30T06:11:17.891Z,10.43
2023-08-30T06:14:03.343Z,11.02
2023-08-30T06:16:49.840Z,11.98
2023-08-30T06:19:35.500Z,12.48
2023-08-30T06:22:21.984Z,9.60
2023-08-30T06:25:07.902Z,11.68
2023-08-30T06:27:59.791Z,10.32
2023-08-30T06:30:45.727Z,10.43
2023-08-30T06:33:31.271Z,10.95
2023-08-30T06:36:18.410Z,10.48
2023-08-30T06:39:04.188Z,10.90
2023-08-30T06:41:49.361Z,11.55
2023-08-30T06:44:34.834Z,10.45
2023-08-30T06:47:20.425Z,9.85
2023-08-30T06:50:06.648Z,11.35
2023-08-30T06:52:51.976Z,11.13
2023-08-30T06:55:38.522Z,10.05
2023-08-30T06:58:23.655Z,10.75
2023-08-30T07:01:09.213Z,11.13
2023-08-30T07:03:54.718Z,10.27
2023-08-30T07:06:40.229Z,10.75
2023-08-30T07:09:29.860Z,10.35
2023-08-30T07:12:15.330Z,10.98
2023-08-30T07:15:00.965Z,10.93
2023-08-30T07:17:53.784Z,11.10
2023-08-30T07:20:51.669Z,9.88
2023-08-30T07:23:37.242Z,11.85
2023-08-30T07:26:22.870Z,11.73
2023-08-30T07:29:10.136Z,11.13
2023-08-30T07:31:55.775Z,11.38
2023-08-30T07:34:41.307Z,10.10
2023-08-30T07:37:26.760Z,10.95
2023-08-30T07:40:13.020Z,9.65
2023-08-30T07:43:04.537Z,10.50
2023-08-30T07:45:50.311Z,13.23
2023-08-30T07:48:35.598Z,8.98
2023-08-30T07:51:21.123Z,10.77
2023-08-30T07:54:06.799Z,9.35
2023-08-30T07:56:52.223Z,8.93
2023-08-30T07:59:38.531Z,7.97
2023-08-30T08:02:23.953Z,8.77
2023-08-30T08:05:09.696Z,8.00
2023-08-30T08:07:55.059Z,8.13
2023-08-30T08:10:40.360Z,9.77
2023-08-30T08:13:26.176Z,9.80
2023-08-30T08:16:11.698Z,8.50
2023-08-30T08:19:00.315Z,9.63
2023-08-30T08:21:45.800Z,10.20
2023-08-30T08:24:31.179Z,9.27
2023-08-30T08:27:16.687Z,9.23
2023-08-30T08:30:02.383Z,10.52
2023-08-30T08:32:51.215Z,9.30
2023-08-30T08:35:36.404Z,9.95
2023-08-30T08:38:22.248Z,10.55
2023-08-30T08:41:08.513Z,9.82
2023-08-30T08:43:55.035Z,9.88
2023-08-30T08:46:42.322Z,10.70
2023-08-30T08:49:30.240Z,10.82
2023-08-30T08:52:29.519Z,9.40
2023-08-30T08:55:18.793Z,11.82
2023-08-30T08:58:05.282Z,11.80
2023-08-30T09:00:51.245Z,11.10
2023-08-30T09:03:37.215Z,12.10
2023-08-30T09:06:24.179Z,10.32
2023-08-30T09:09:10.166Z,10.95
2023-08-30T09:11:55.416Z,11.98
2023-08-30T09:14:40.847Z,11.40
2023-08-30T09:17:40.457Z,11.95
2023-08-30T09:20:26.041Z,11.32
2023-08-30T09:23:21.953Z,12.80
2023-08-30T09:26:07.522Z,10.50
2023-08-30T09:28:52.808Z,11.15
2023-08-30T09:31:40.378Z,10.55
2023-08-30T09:34:28.984Z,12.65
2023-08-30T09:37:24.466Z,11.13
2023-08-30T09:40:10.026Z,12.05
2023-08-30T09:43:10.817Z,12.35
2023-08-30T09:45:59.185Z,12.77
2023-08-30T09:48:45.379Z,11.68
2023-08-30T09:51:31.448Z,11.15
2023-08-30T09:57:10.929Z,13.48
2023-08-30T09:59:57.847Z,10.35
2023-08-30T10:03:01.288Z,10.38
2023-08-30T10:05:52.139Z,9.55
2023-08-30T10:08:40.624Z,9.68
2023-08-30T10:11:27.904Z,10.98
2023-08-30T10:14:14.716Z,9.60
2023-08-30T10:17:04.648Z,10.20
2023-08-30T10:19:52.472Z,9.18
2023-08-30T10:22:39.742Z,8.02
2023-08-30T10:25:29.660Z,7.72
2023-08-30T10:28:15.397Z,6.57
2023-08-30T10:31:00.923Z,7.65
2023-08-30T10:33:56.471Z,7.05
2023-08-30T10:36:43.231Z,7.35
2023-08-30T10:39:41.184Z,7.60
2023-08-30T10:42:26.386Z,7.60
2023-08-30T10:45:14.629Z,7.78
2023-08-30T10:48:00.775Z,7.57
2023-08-30T10:50:46.160Z,6.45
2023-08-30T10:53:32.319Z,8.07
2023-08-30T10:56:18.012Z,7.70
2023-08-30T10:59:03.986Z,8.15
2023-08-30T11:01:50.637Z,7.85
2023-08-30T11:04:42.437Z,7.13
2023-08-30T11:07:28.195Z,7.38
2023-08-30T11:10:14.005Z,6.40
2023-08-30T11:12:59.294Z,7.63
2023-08-30T11:15:44.909Z,6.18
2023-08-30T11:18:31.405Z,6.50
2023-08-30T11:21:17.710Z,6.03
2023-08-30T11:24:05.114Z,6.30
2023-08-30T11:26:54.769Z,6.32
2023-08-30T11:29:41.269Z,7.00
2023-08-30T11:32:26.529Z,5.35
2023-08-30T11:35:12.414Z,6.35
2023-08-30T11:37:59.159Z,5.10
2023-08-30T11:40:45.256Z,5.78
2023-08-30T11:43:30.815Z,5.85
2023-08-30T11:46:17.426Z,5.25
2023-08-30T11:49:03.909Z,4.78
2023-08-30T11:51:50.017Z,5.75
2023-08-30T11:54:35.510Z,5.13
2023-08-30T11:57:22.271Z,6.28
2023-08-30T12:00:14.085Z,6.43
2023-08-30T12:02:59.393Z,4.82
2023-08-30T12:05:51.846Z,5.15
2023-08-30T12:08:37.089Z,5.30
2023-08-30T12:11:22.631Z,4.85
2023-08-30T12:14:08.148Z,4.97
2023-08-30T12:16:53.765Z,5.50
2023-08-30T12:19:41.362Z,6.75
2023-08-30T12:22:48.972Z,5.45
2023-08-30T12:25:35.043Z,6.15
2023-08-30T12:28:20.810Z,4.97
2023-08-30T12:31:06.469Z,5.28
2023-08-30T12:33:52.218Z,6.15
2023-08-30T12:36:37.738Z,6.13
2023-08-30T12:39:23.234Z,5.80
2023-08-30T12:42:10.437Z,11.43
2023-08-30T12:44:55.804Z,5.93
2023-08-30T12:47:41.494Z,5.25
2023-08-30T12:50:27.125Z,6.07
2023-08-30T12:53:13.254Z,5.32
2023-08-30T12:55:58.724Z,4.80
2023-08-30T12:58:44.283Z,7.65
2023-08-30T13:01:30.032Z,5.72
2023-08-30T13:04:15.743Z,7.53
2023-08-30T13:07:01.348Z,7.10
2023-08-30T13:09:46.963Z,7.10
2023-08-30T13:12:32.632Z,6.88
2023-08-30T13:15:18.667Z,7.07
2023-08-30T13:18:04.441Z,6.20
2023-08-30T13:20:49.915Z,7.35
2023-08-30T13:23:35.421Z,13.65
2023-08-30T13:26:21.094Z,6.00
2023-08-30T13:29:06.630Z,6.30
2023-08-30T13:31:52.206Z,6.25
2023-08-30T13:34:37.979Z,6.55
2023-08-30T13:37:24.560Z,6.10
2023-08-30T13:40:10.809Z,8.07
2023-08-30T13:42:56.186Z,6.30
2023-08-30T13:45:41.559Z,5.68
2023-08-30T13:48:27.484Z,5.15
2023-08-30T13:51:12.942Z,5.60
2023-08-30T13:53:58.679Z,4.93
2023-08-30T13:56:44.148Z,6.22
2023-08-30T13:59:29.836Z,5.72
2023-08-30T14:02:15.326Z,4.45
2023-08-30T14:05:00.819Z,5.15
2023-08-30T14:07:47.581Z,4.75
2023-08-30T14:10:34.191Z,4.75
2023-08-30T14:13:19.916Z,5.05
2023-08-30T14:16:05.727Z,4.63
2023-08-30T14:18:50.983Z,4.28
2023-08-30T14:21:36.665Z,5.70
2023-08-30T14:24:22.230Z,4.88
2023-08-30T14:27:08.490Z,4.78
2023-08-30T14:29:54.185Z,4.45
2023-08-30T14:32:39.440Z,6.13
2023-08-30T14:35:25.298Z,4.43
2023-08-30T14:38:11.338Z,4.95
2023-08-30T14:41:01.157Z,5.85
2023-08-30T14:43:46.536Z,4.90
2023-08-30T14:46:32.181Z,4.68
2023-08-30T14:49:17.355Z,5.40
2023-08-30T14:52:03.093Z,5.72
2023-08-30T14:54:48.496Z,4.97
2023-08-30T14:57:33.929Z,5.47
2023-08-30T15:00:19.669Z,4.88
2023-08-30T15:03:05.801Z,4.95
2023-08-30T15:05:58.097Z,5.80
2023-08-30T15:08:43.932Z,5.72
2023-08-30T15:11:29.422Z,5.30
2023-08-30T15:14:15.054Z,5.45
2023-08-30T15:17:00.811Z,5.18
2023-08-30T15:19:46.287Z,7.22
2023-08-30T15:22:33.159Z,6.03
2023-08-30T15:25:19.657Z,5.97
2023-08-30T15:28:05.301Z,6.60
2023-08-30T15:30:52.025Z,8.15
2023-08-30T15:33:37.639Z,7.45
2023-08-30T15:36:23.280Z,7.35
2023-08-30T15:39:09.944Z,8.73
2023-08-30T15:41:55.510Z,8.30
2023-08-30T15:44:41.139Z,8.75
2023-08-30T15:47:27.607Z,9.07
2023-08-30T15:50:13.181Z,9.25
2023-08-30T15:52:58.762Z,10.30
2023-08-30T15:55:44.301Z,11.07
2023-08-30T15:58:30.693Z,11.55
2023-08-30T16:01:17.184Z,13.45
2023-08-30T16:04:02.533Z,12.95
2023-08-30T16:06:48.145Z,12.05
2023-08-30T16:09:33.604Z,11.98
2023-08-30T16:12:19.584Z,11.60
2023-08-30T16:15:05.546Z,13.02
2023-08-30T16:17:51.005Z,12.32
2023-08-30T16:20:36.614Z,12.70
2023-08-30T16:23:22.057Z,13.10
2023-08-30T16:26:07.634Z,13.52
2023-08-30T16:28:53.227Z,14.05
2023-08-30T16:31:38.666Z,14.40
2023-08-30T16:34:24.168Z,15.30
2023-08-30T16:37:09.655Z,15.10
2023-08-30T16:39:55.553Z,16.15
2023-08-30T16:42:40.805Z,16.02
2023-08-30T16:45:26.292Z,14.70
2023-08-30T16:48:13.358Z,13.85
2023-08-30T16:50:58.977Z,14.25
2023-08-30T16:53:44.812Z,11.52
2023-08-30T16:56:30.462Z,11.77
2023-08-30T16:59:15.905Z,13.15
2023-08-30T17:02:01.580Z,12.15
2023-08-30T17:04:47.010Z,12.48
2023-08-30T17:07:32.514Z,12.63
2023-08-30T17:10:18.358Z,11.85
2023-08-30T17:13:03.957Z,14.60
2023-08-30T17:15:49.555Z,13.88
2023-08-30T17:18:37.874Z,15.68
2023-08-30T17:21:25.105Z,14.15
2023-08-30T17:24:10.528Z,12.65
2023-08-30T17:26:58.068Z,13.00
2023-08-30T17:29:43.509Z,14.45
2023-08-30T17:32:29.440Z,17.95
2023-08-30T17:35:15.008Z,34.22
2023-08-30T17:38:01.697Z,14.88
2023-08-30T17:40:47.122Z,12.45
2023-08-30T17:43:32.613Z,19.67
2023-08-30T17:46:18.148Z,11.88
2023-08-30T17:49:03.911Z,9.00
2023-08-30T17:51:49.135Z,7.90
2023-08-30T17:54:36.502Z,11.85
2023-08-30T17:57:21.710Z,9.35
2023-08-30T18:00:10.293Z,9.95
2023-08-30T18:02:57.192Z,13.00
2023-08-30T18:05:42.684Z,12.48
2023-08-30T18:08:28.307Z,8.50
2023-08-30T18:11:17.623Z,9.48
2023-08-30T18:14:02.916Z,9.38
2023-08-30T18:16:48.709Z,8.10
2023-08-30T18:19:34.391Z,10.60
2023-08-30T18:22:19.902Z,9.38
2023-08-30T18:25:05.843Z,9.38
2023-08-30T18:27:51.006Z,8.57
2023-08-30T18:30:36.586Z,10.68
2023-08-30T18:33:23.178Z,10.35
2023-08-30T18:36:08.587Z,9.10
2023-08-30T18:38:55.234Z,9.38
2023-08-30T18:41:41.244Z,9.45
2023-08-30T18:44:26.809Z,9.00
2023-08-30T18:47:18.333Z,10.25
2023-08-30T18:50:04.119Z,10.68
2023-08-30T18:52:49.913Z,10.50
2023-08-30T18:55:35.998Z,10.10
2023-08-30T18:58:22.158Z,9.27
2023-08-30T19:01:07.810Z,8.90
2023-08-30T19:03:53.240Z,8.65
2023-08-30T19:06:38.677Z,9.48
2023-08-30T19:09:24.277Z,10.00
2023-08-30T19:12:09.831Z,9.95
2023-08-30T19:14:55.252Z,9.93
2023-08-30T19:17:42.075Z,21.15
2023-08-30T19:20:27.612Z,9.05
2023-08-30T19:23:13.607Z,10.45
2023-08-30T19:25:59.423Z,17.52
2023-08-30T19:28:46.101Z,12.85
2023-08-30T19:31:35.744Z,37.05
2023-08-30T19:34:22.251Z,9.63
2023-08-30T19:37:07.717Z,9.32
2023-08-30T19:39:54.057Z,9.32
2023-08-30T19:42:40.240Z,10.23
2023-08-30T19:45:25.502Z,10.07
2023-08-30T19:48:11.441Z,9.98
2023-08-30T19:50:57.659Z,10.13
2023-08-30T19:53:43.172Z,11.38
2023-08-30T19:56:29.082Z,8.80
2023-08-30T19:59:14.314Z,7.72
2023-08-30T20:02:00.498Z,8.52
2023-08-30T20:04:46.439Z,8.02
2023-08-30T20:07:32.204Z,8.18
2023-08-30T20:10:17.603Z,7.00
2023-08-30T20:13:03.723Z,8.13
2023-08-30T20:15:59.697Z,8.50
2023-08-30T20:18:45.396Z,7.18
2023-08-30T20:21:30.901Z,8.10
2023-08-30T20:24:17.677Z,7.57
2023-08-30T20:27:02.912Z,7.38
2023-08-30T20:29:48.617Z,7.75
2023-08-30T20:32:34.161Z,7.68
2023-08-30T20:35:20.116Z,6.72
2023-08-30T20:38:05.461Z,7.05
2023-08-30T20:40:50.855Z,7.80
2023-08-30T20:43:36.352Z,7.47
2023-08-30T20:46:22.496Z,7.15
2023-08-30T20:49:08.305Z,7.03
2023-08-30T20:51:53.943Z,7.88
2023-08-30T20:54:39.497Z,7.95
2023-08-30T20:57:26.408Z,8.20
2023-08-30T21:00:13.009Z,9.13
2023-08-30T21:02:58.622Z,10.32
2023-08-30T21:05:43.975Z,7.40
2023-08-30T21:08:29.393Z,7.07
2023-08-30T21:11:14.956Z,7.90
2023-08-30T21:14:00.526Z,7.80
2023-08-30T21:16:46.177Z,9.00
2023-08-30T21:19:31.782Z,9.48
2023-08-30T21:22:17.245Z,8.98
2023-08-30T21:25:04.420Z,9.45
2023-08-30T21:27:51.712Z,10.57
2023-08-30T21:30:44.678Z,9.75
2023-08-30T21:33:30.469Z,9.15
2023-08-30T21:36:16.074Z,8.65
2023-08-30T21:39:12.609Z,14.27
2023-08-30T21:41:57.911Z,9.30
2023-08-30T21:44:43.594Z,10.75
2023-08-30T21:47:29.653Z,8.43
2023-08-30T21:50:15.243Z,8.63
2023-08-30T21:53:01.664Z,9.18
2023-08-30T21:55:46.936Z,9.23
2023-08-30T21:58:32.469Z,8.45
2023-08-30T22:01:18.193Z,9.10
2023-08-30T22:04:06.399Z,9.18
2023-08-30T22:06:51.737Z,9.07
2023-08-30T22:09:37.206Z,9.23
2023-08-30T22:12:23.328Z,9.88
2023-08-30T22:15:14.846Z,9.75
2023-08-30T22:18:01.048Z,10.43
2023-08-30T22:20:46.376Z,10.80
2023-08-30T22:23:31.890Z,12.07
2023-08-30T22:26:17.428Z,12.40
2023-08-30T22:29:03.676Z,12.25
2023-08-30T22:31:49.165Z,10.55
2023-08-30T22:34:35.239Z,9.77
2023-08-30T22:37:21.394Z,9.65
2023-08-30T22:40:09.383Z,10.38
2023-08-30T22:42:55.084Z,9.60
2023-08-30T22:45:40.799Z,9.93
2023-08-30T22:48:26.123Z,9.48
2023-08-30T22:51:11.637Z,10.15
2023-08-30T22:53:57.373Z,10.55
2023-08-30T22:56:45.882Z,10.73
2023-08-30T22:59:31.531Z,12.98
2023-08-30T23:02:18.326Z,10.27
2023-08-30T23:05:06.704Z,10.32
2023-08-30T23:07:52.438Z,10.45
2023-08-30T23:10:37.830Z,11.20
2023-08-30T23:13:23.619Z,11.10
2023-08-30T23:16:09.772Z,11.30
2023-08-30T23:18:55.464Z,11.98
2023-08-30T23:21:41.084Z,12.05
2023-08-30T23:24:26.420Z,13.82
2023-08-30T23:27:11.988Z,12.68
2023-08-30T23:29:57.595Z,17.13
2023-08-30T23:32:44.099Z,17.15
2023-08-30T23:35:32.855Z,14.63
2023-08-30T23:38:18.053Z,14.85
2023-08-30T23:41:03.874Z,14.88
2023-08-30T23:43:49.756Z,15.88
2023-08-30T23:46:35.295Z,16.55
2023-08-30T23:49:20.817Z,17.42
2023-08-30T23:52:06.788Z,15.68
2023-08-30T23:54:53.419Z,18.50
2023-08-30T23:57:41.648Z,17.65
